Brillion, Wisconsin
Current Conditions -  °F | °C
As of 9:56 AM on Friday 19 Dec 2014 (Local Time) from KMTW Reporting Station
Clear Clear  
Wind Chill: 29°   Ceiling: Unl
Heat Index: 29°   Visibility: 10mi
Dew Point: 24°   Wind: 3mph
Humidity: 82%   Direction: 330°NNW
Pressure: 30.31"   Gusts: NA
Location:  44.18°N, 88.06°W
Report Text: KMTW 191556Z AUTO 33003KT 10SM CLR M02/M04 A3031 RMK AO2 SLP290 T10171044 FZRANO
Loading
Personal Weather Stations






























Interactive Weather Map New forecast layout! Learn more

10-Day Weather Forecast

Advertisements
Track Severe Weather on mobile